createdAt,value
2018-03-31T00:02:00.076Z,11.10
2018-03-31T00:04:26.131Z,10.37
2018-03-31T00:06:52.276Z,11.93
2018-03-31T00:09:18.284Z,11.47
2018-03-31T00:11:44.378Z,11.40
2018-03-31T00:14:10.466Z,11.40
2018-03-31T00:16:36.477Z,11.17
2018-03-31T00:19:02.524Z,10.40
2018-03-31T00:21:28.589Z,11.83
2018-03-31T00:23:54.617Z,11.07
2018-03-31T00:26:20.635Z,11.37
2018-03-31T00:28:46.791Z,11.30
2018-03-31T00:31:12.813Z,12.17
2018-03-31T00:33:38.910Z,11.67
2018-03-31T00:36:04.973Z,11.23
2018-03-31T00:38:31.085Z,12.03
2018-03-31T00:40:57.116Z,12.30
2018-03-31T00:43:23.173Z,12.57
2018-03-31T00:45:49.219Z,12.73
2018-03-31T00:48:15.226Z,12.03
2018-03-31T00:50:41.283Z,13.20
2018-03-31T00:53:07.285Z,12.70
2018-03-31T00:55:33.349Z,12.37
2018-03-31T00:57:59.362Z,13.47
2018-03-31T01:00:25.469Z,13.53
2018-03-31T01:02:51.493Z,13.07
2018-03-31T01:05:17.526Z,12.63
2018-03-31T01:07:43.538Z,13.87
2018-03-31T01:10:09.532Z,12.90
2018-03-31T01:12:35.564Z,13.77
2018-03-31T01:15:02.642Z,14.17
2018-03-31T01:17:28.798Z,13.40
2018-03-31T01:19:54.831Z,15.03
2018-03-31T01:22:20.861Z,13.17
2018-03-31T01:24:46.981Z,13.53
2018-03-31T01:27:13.007Z,14.00
2018-03-31T01:29:39.024Z,13.97
2018-03-31T01:32:05.126Z,14.60
2018-03-31T01:34:31.159Z,14.30
2018-03-31T01:36:57.200Z,14.63
2018-03-31T01:39:23.262Z,13.77
2018-03-31T01:41:49.276Z,13.20
2018-03-31T01:44:15.297Z,12.57
2018-03-31T01:46:41.359Z,11.77
2018-03-31T01:49:07.435Z,12.27
2018-03-31T01:51:33.445Z,12.67
2018-03-31T01:53:59.498Z,13.07
2018-03-31T01:56:25.517Z,11.80
2018-03-31T01:58:51.536Z,12.97
2018-03-31T02:01:17.606Z,13.57
2018-03-31T02:03:43.617Z,13.30
2018-03-31T02:06:09.649Z,13.50
2018-03-31T02:08:35.656Z,13.17
2018-03-31T02:11:01.718Z,14.03
2018-03-31T02:13:27.729Z,13.80
2018-03-31T02:15:53.761Z,13.90
2018-03-31T02:18:19.761Z,14.33
2018-03-31T02:20:45.801Z,14.77
2018-03-31T02:23:11.805Z,16.53
2018-03-31T02:25:37.869Z,16.40
2018-03-31T02:28:03.935Z,16.10
2018-03-31T02:33:02.501Z,15.00
2018-03-31T02:35:28.614Z,15.57
2018-03-31T02:37:54.645Z,16.33
2018-03-31T02:40:20.655Z,14.87
2018-03-31T02:42:46.781Z,16.87
2018-03-31T02:45:12.785Z,15.50
2018-03-31T02:47:38.826Z,14.43
2018-03-31T02:50:04.964Z,15.47
2018-03-31T02:52:30.973Z,15.87
2018-03-31T02:54:57.029Z,15.00
2018-03-31T02:57:23.117Z,14.70
2018-03-31T02:59:49.184Z,18.97
2018-03-31T03:02:15.191Z,21.50
2018-03-31T03:04:41.262Z,17.90
2018-03-31T03:07:07.278Z,14.30
2018-03-31T03:09:33.297Z,15.07
2018-03-31T03:11:59.347Z,14.90
2018-03-31T03:14:25.422Z,15.57
2018-03-31T03:16:51.432Z,16.73
2018-03-31T03:19:17.436Z,16.00
2018-03-31T03:21:43.497Z,16.93
2018-03-31T03:24:09.521Z,16.20
2018-03-31T03:26:35.548Z,16.80
2018-03-31T03:29:01.557Z,14.87
2018-03-31T03:31:27.604Z,16.17
2018-03-31T03:33:54.393Z,15.00
2018-03-31T03:36:20.434Z,16.43
2018-03-31T03:38:46.500Z,16.47
2018-03-31T03:41:12.549Z,15.63
2018-03-31T03:43:38.573Z,15.13
2018-03-31T03:46:04.640Z,16.37
2018-03-31T03:48:30.761Z,15.23
2018-03-31T03:50:56.820Z,17.13
2018-03-31T03:53:22.941Z,15.07
2018-03-31T03:55:48.973Z,16.67
2018-03-31T03:58:15.004Z,16.43
2018-03-31T04:00:41.065Z,15.23
2018-03-31T04:03:07.100Z,16.17
2018-03-31T04:05:33.157Z,16.37
2018-03-31T04:07:59.236Z,16.10
2018-03-31T04:10:25.278Z,16.03
2018-03-31T04:12:51.276Z,16.23
2018-03-31T04:15:17.367Z,15.93
2018-03-31T04:17:43.378Z,16.00
2018-03-31T04:20:09.403Z,16.40
2018-03-31T04:22:35.436Z,16.50
2018-03-31T04:25:01.464Z,17.17
2018-03-31T04:27:27.478Z,15.93
2018-03-31T04:29:53.529Z,15.03
2018-03-31T04:32:19.542Z,15.27
2018-03-31T04:34:45.693Z,16.63
2018-03-31T04:37:11.748Z,15.10
2018-03-31T04:39:37.757Z,15.57
2018-03-31T04:42:03.846Z,16.10
2018-03-31T04:44:29.843Z,16.33
2018-03-31T04:46:55.877Z,16.27
2018-03-31T04:49:21.917Z,16.23
2018-03-31T04:51:47.994Z,16.30
2018-03-31T04:54:14.061Z,17.27
2018-03-31T04:56:40.125Z,18.67
2018-03-31T04:59:06.161Z,17.70
2018-03-31T05:01:32.253Z,17.57
2018-03-31T05:03:58.368Z,16.33
2018-03-31T05:06:24.438Z,17.13
2018-03-31T05:08:50.515Z,18.10
2018-03-31T05:11:16.612Z,16.00
2018-03-31T05:13:42.682Z,18.30
2018-03-31T05:16:08.724Z,17.20
2018-03-31T05:18:34.949Z,16.93
2018-03-31T05:21:00.982Z,15.87
2018-03-31T05:23:27.037Z,17.70
2018-03-31T05:25:53.120Z,17.07
2018-03-31T05:28:19.202Z,17.30
2018-03-31T05:30:45.231Z,17.47
2018-03-31T05:33:11.320Z,18.30
2018-03-31T05:35:37.357Z,17.57
2018-03-31T05:38:03.396Z,17.67
2018-03-31T05:40:29.481Z,18.07
2018-03-31T05:42:55.476Z,17.43
2018-03-31T05:45:21.506Z,17.73
2018-03-31T05:47:47.557Z,18.20
2018-03-31T05:50:13.624Z,16.93
2018-03-31T05:52:39.639Z,18.43
2018-03-31T05:55:05.677Z,17.87
2018-03-31T05:57:31.683Z,17.97
2018-03-31T05:59:57.720Z,17.40
2018-03-31T06:02:23.756Z,17.97
2018-03-31T06:04:49.757Z,18.80
2018-03-31T06:07:15.808Z,17.27
2018-03-31T06:09:41.809Z,18.20
2018-03-31T06:12:07.868Z,17.40
2018-03-31T06:14:33.878Z,18.27
2018-03-31T06:16:59.923Z,18.60
2018-03-31T06:19:25.962Z,17.87
2018-03-31T06:21:52.002Z,19.03
2018-03-31T06:24:18.014Z,18.93
2018-03-31T06:26:44.021Z,18.20
2018-03-31T06:29:10.050Z,19.50
2018-03-31T06:31:36.097Z,18.97
2018-03-31T06:34:02.136Z,18.40
2018-03-31T06:36:28.150Z,17.67
2018-03-31T06:38:54.180Z,19.37
2018-03-31T06:41:20.195Z,18.53
2018-03-31T06:43:46.361Z,18.10
2018-03-31T06:46:12.390Z,18.10
2018-03-31T06:48:38.457Z,18.27
2018-03-31T06:51:04.456Z,19.03
2018-03-31T06:53:30.505Z,17.77
2018-03-31T06:55:56.569Z,18.47
2018-03-31T06:58:22.592Z,19.50
2018-03-31T07:00:48.676Z,17.57
2018-03-31T07:03:14.725Z,18.97
2018-03-31T07:05:40.753Z,20.90
2018-03-31T07:08:06.761Z,29.03
2018-03-31T07:10:32.784Z,20.20
2018-03-31T07:12:58.797Z,20.20
2018-03-31T07:15:24.833Z,20.90
2018-03-31T07:17:50.836Z,22.50
2018-03-31T07:20:16.836Z,18.97
2018-03-31T07:22:42.893Z,18.63
2018-03-31T07:25:08.901Z,17.60
2018-03-31T07:27:34.977Z,18.50
2018-03-31T07:30:00.984Z,18.97
2018-03-31T07:32:27.008Z,19.80
2018-03-31T07:34:53.029Z,20.47
2018-03-31T07:37:19.073Z,19.57
2018-03-31T07:39:45.086Z,20.00
2018-03-31T07:42:11.118Z,19.23
2018-03-31T07:44:37.119Z,19.30
2018-03-31T07:47:03.197Z,18.97
2018-03-31T07:49:29.245Z,19.17
2018-03-31T07:51:55.253Z,19.50
2018-03-31T07:54:21.308Z,19.30
2018-03-31T07:56:47.326Z,20.70
2018-03-31T07:59:13.353Z,18.80
2018-03-31T08:01:39.369Z,18.57
2018-03-31T08:04:05.450Z,19.70
2018-03-31T08:06:31.461Z,19.63
2018-03-31T08:08:57.544Z,19.97
2018-03-31T08:11:23.573Z,20.00
2018-03-31T08:13:49.596Z,19.23
2018-03-31T08:16:15.634Z,18.93
2018-03-31T08:18:41.651Z,18.53
2018-03-31T08:21:07.693Z,18.37
2018-03-31T08:23:33.713Z,19.03
2018-03-31T08:25:59.750Z,19.13
2018-03-31T08:28:25.780Z,19.53
2018-03-31T08:30:51.820Z,17.80
2018-03-31T08:33:17.829Z,19.47
2018-03-31T08:35:43.881Z,19.60
2018-03-31T08:38:09.893Z,19.40
2018-03-31T08:40:35.914Z,18.57
2018-03-31T08:43:01.983Z,18.97
2018-03-31T08:45:28.038Z,21.10
2018-03-31T08:47:54.197Z,20.37
2018-03-31T08:50:20.249Z,19.10
2018-03-31T08:52:46.313Z,20.50
2018-03-31T08:55:12.800Z,20.13
2018-03-31T08:57:38.837Z,18.93
2018-03-31T09:00:04.864Z,19.73
2018-03-31T09:02:30.904Z,20.57
2018-03-31T09:04:56.948Z,20.40
2018-03-31T09:07:22.958Z,19.57
2018-03-31T09:09:48.990Z,21.73
2018-03-31T09:12:14.998Z,19.63
2018-03-31T09:14:41.166Z,20.57
2018-03-31T09:17:07.251Z,20.10
2018-03-31T09:19:33.285Z,18.77
2018-03-31T09:21:59.373Z,19.80
2018-03-31T09:24:25.454Z,19.33
2018-03-31T09:26:51.514Z,20.23
2018-03-31T09:29:17.570Z,20.50
2018-03-31T09:31:43.584Z,20.63
2018-03-31T09:34:09.587Z,21.47
2018-03-31T09:36:35.638Z,20.13
2018-03-31T09:39:01.717Z,20.33
2018-03-31T09:41:27.883Z,19.23
2018-03-31T09:43:53.920Z,19.00
2018-03-31T09:46:19.948Z,20.13
2018-03-31T09:48:45.957Z,20.60
2018-03-31T09:51:11.986Z,21.23
2018-03-31T09:53:38.023Z,22.00
2018-03-31T09:56:04.072Z,21.67
2018-03-31T09:58:30.077Z,20.77
2018-03-31T10:01:02.265Z,22.03
2018-03-31T10:03:28.303Z,22.43
2018-03-31T10:05:54.386Z,25.13
2018-03-31T10:08:20.440Z,23.57
2018-03-31T10:10:46.472Z,23.43
2018-03-31T10:13:12.505Z,22.07
2018-03-31T10:15:38.553Z,21.17
2018-03-31T10:18:04.586Z,21.53
2018-03-31T10:20:30.600Z,22.27
2018-03-31T10:22:56.742Z,19.83
2018-03-31T10:25:22.769Z,21.33
2018-03-31T10:27:48.783Z,21.77
2018-03-31T10:30:14.810Z,21.40
2018-03-31T10:32:40.840Z,22.13
2018-03-31T10:35:07.207Z,21.43
2018-03-31T10:37:33.256Z,21.03
2018-03-31T10:39:59.324Z,20.43
2018-03-31T10:42:25.511Z,21.57
2018-03-31T10:44:51.603Z,20.57
2018-03-31T10:47:17.722Z,19.60
2018-03-31T10:49:43.789Z,19.93
2018-03-31T10:52:09.829Z,19.17
2018-03-31T10:54:35.845Z,20.43
2018-03-31T10:57:01.890Z,20.57
2018-03-31T10:59:27.911Z,20.70
2018-03-31T11:01:53.946Z,19.10
2018-03-31T11:04:19.961Z,20.33
2018-03-31T11:06:46.001Z,20.57
2018-03-31T11:09:12.006Z,20.00
2018-03-31T11:11:38.039Z,19.47
2018-03-31T11:14:04.176Z,18.93
2018-03-31T11:16:30.202Z,19.43
2018-03-31T11:18:56.223Z,18.40
2018-03-31T11:21:22.293Z,18.13
2018-03-31T11:23:48.317Z,16.80
2018-03-31T11:26:14.397Z,14.97
2018-03-31T11:28:40.417Z,9.87
2018-03-31T11:31:06.441Z,10.03
2018-03-31T11:33:32.479Z,9.03
2018-03-31T11:35:58.482Z,10.10
2018-03-31T11:38:24.544Z,10.40
2018-03-31T11:40:50.552Z,10.30
2018-03-31T11:43:16.576Z,9.50
2018-03-31T11:45:42.614Z,11.40
2018-03-31T11:48:08.674Z,12.17
2018-03-31T11:50:34.680Z,13.97
2018-03-31T11:53:00.750Z,16.50
2018-03-31T11:55:26.762Z,16.90
2018-03-31T11:57:52.774Z,19.47
2018-03-31T12:00:18.839Z,19.87
2018-03-31T12:02:44.857Z,20.40
2018-03-31T12:05:10.881Z,20.97
2018-03-31T12:07:36.924Z,21.13
2018-03-31T12:10:02.959Z,19.83
2018-03-31T12:12:29.012Z,20.77
2018-03-31T12:14:55.044Z,21.03
2018-03-31T12:17:21.045Z,20.27
2018-03-31T12:19:47.065Z,20.73
2018-03-31T12:22:13.102Z,19.63
2018-03-31T12:24:39.114Z,17.23
2018-03-31T12:27:05.270Z,15.53
2018-03-31T12:29:31.428Z,14.80
2018-03-31T12:31:57.519Z,15.10
2018-03-31T12:34:23.661Z,14.77
2018-03-31T12:36:49.728Z,14.93
2018-03-31T12:39:15.769Z,14.07
2018-03-31T12:41:41.808Z,14.23
2018-03-31T12:44:07.818Z,11.30
2018-03-31T12:46:33.829Z,11.53
2018-03-31T12:48:59.952Z,10.43
2018-03-31T12:51:25.962Z,11.70
2018-03-31T12:53:52.242Z,11.17
2018-03-31T12:56:18.239Z,11.43
2018-03-31T12:58:44.296Z,11.70
2018-03-31T13:01:10.348Z,11.40
2018-03-31T13:03:36.380Z,11.40
2018-03-31T13:06:02.386Z,10.13
2018-03-31T13:08:28.502Z,8.47
2018-03-31T13:10:54.716Z,8.83
2018-03-31T13:13:20.772Z,8.97
2018-03-31T13:15:46.801Z,8.50
2018-03-31T13:18:12.842Z,9.87
2018-03-31T13:20:38.947Z,9.47
2018-03-31T13:23:04.959Z,10.30
2018-03-31T13:25:30.989Z,11.40
2018-03-31T13:27:57.088Z,10.40
2018-03-31T13:30:23.118Z,11.50
2018-03-31T13:32:49.149Z,11.90
2018-03-31T13:35:15.201Z,12.80
2018-03-31T13:37:41.213Z,13.93
2018-03-31T13:40:07.221Z,13.60
2018-03-31T13:42:33.258Z,14.13
2018-03-31T13:44:59.266Z,15.00
2018-03-31T13:47:25.290Z,15.87
2018-03-31T13:49:51.310Z,27.37
2018-03-31T13:52:17.344Z,33.07
2018-03-31T13:54:43.354Z,15.47
2018-03-31T13:57:09.390Z,15.57
2018-03-31T13:59:35.410Z,16.00
2018-03-31T14:02:01.466Z,15.50
2018-03-31T14:04:27.474Z,14.47
2018-03-31T14:06:53.566Z,16.07
2018-03-31T14:09:19.593Z,16.10
2018-03-31T14:11:45.647Z,15.83
2018-03-31T14:14:11.708Z,15.43
2018-03-31T14:16:37.725Z,16.37
2018-03-31T14:19:03.771Z,15.63
2018-03-31T14:21:29.795Z,16.33
2018-03-31T14:23:55.841Z,15.77
2018-03-31T14:26:21.859Z,17.23
2018-03-31T14:28:47.901Z,16.80
2018-03-31T14:31:13.917Z,17.80
2018-03-31T14:33:39.978Z,17.07
2018-03-31T14:36:06.021Z,17.60
2018-03-31T14:38:32.025Z,17.47
2018-03-31T14:40:58.070Z,36.40
2018-03-31T14:43:24.125Z,20.30
2018-03-31T14:45:50.172Z,17.33
2018-03-31T14:48:16.197Z,16.83
2018-03-31T14:50:42.229Z,17.70
2018-03-31T14:53:08.241Z,18.83
2018-03-31T14:55:34.285Z,16.70
2018-03-31T14:58:00.292Z,17.93
2018-03-31T15:00:26.302Z,17.07
2018-03-31T15:02:52.361Z,18.37
2018-03-31T15:05:18.374Z,18.20
2018-03-31T15:07:44.396Z,17.23
2018-03-31T15:10:10.458Z,16.87
2018-03-31T15:12:37.685Z,17.63
2018-03-31T15:15:03.762Z,19.17
2018-03-31T15:17:29.740Z,18.90
2018-03-31T15:19:55.781Z,18.67
2018-03-31T15:22:21.830Z,18.37
2018-03-31T15:24:47.932Z,18.83
2018-03-31T15:27:13.982Z,20.43
2018-03-31T15:29:40.014Z,19.07
2018-03-31T15:32:06.084Z,18.70
2018-03-31T15:34:32.212Z,19.57
2018-03-31T15:36:58.248Z,18.20
2018-03-31T15:39:24.296Z,18.37
2018-03-31T15:41:50.325Z,17.53
2018-03-31T15:44:16.359Z,17.80
2018-03-31T15:46:42.398Z,18.00
2018-03-31T15:49:08.476Z,17.67
2018-03-31T15:51:34.509Z,18.20
2018-03-31T15:54:00.594Z,17.67
2018-03-31T15:56:26.626Z,19.40
2018-03-31T15:58:52.633Z,18.77
2018-03-31T16:01:18.665Z,17.57
2018-03-31T16:03:44.687Z,17.60
2018-03-31T16:06:10.711Z,17.53
2018-03-31T16:08:36.731Z,18.17
2018-03-31T16:11:02.769Z,18.57
2018-03-31T16:13:28.779Z,18.20
2018-03-31T16:15:54.825Z,19.13
2018-03-31T16:18:20.866Z,20.13
2018-03-31T16:20:46.897Z,20.50
2018-03-31T16:23:13.001Z,20.27
2018-03-31T16:25:39.005Z,20.40
2018-03-31T16:28:05.096Z,20.63
2018-03-31T16:30:31.116Z,19.77
2018-03-31T16:32:57.201Z,20.87
2018-03-31T16:35:23.226Z,20.73
2018-03-31T16:37:49.261Z,20.60
2018-03-31T16:40:15.324Z,20.17
2018-03-31T16:42:41.336Z,19.77
2018-03-31T16:45:07.361Z,20.40
2018-03-31T16:47:33.372Z,19.33
2018-03-31T16:49:59.405Z,22.53
2018-03-31T16:52:25.438Z,20.37
2018-03-31T16:54:51.470Z,21.27
2018-03-31T16:57:17.470Z,20.70
2018-03-31T16:59:43.517Z,20.73
2018-03-31T17:02:09.510Z,20.40
2018-03-31T17:04:35.544Z,20.90
2018-03-31T17:07:01.558Z,20.23
2018-03-31T17:09:27.601Z,20.43
2018-03-31T17:11:53.607Z,19.53
2018-03-31T17:14:19.650Z,19.43
2018-03-31T17:16:45.724Z,20.37
2018-03-31T17:19:11.740Z,17.77
2018-03-31T17:21:37.777Z,17.93
2018-03-31T17:24:03.798Z,18.07
2018-03-31T17:26:29.866Z,18.57
2018-03-31T17:28:55.868Z,18.03
2018-03-31T17:31:21.893Z,17.17
2018-03-31T17:33:47.925Z,17.10
2018-03-31T17:36:13.957Z,17.17
2018-03-31T17:38:40.002Z,17.33
2018-03-31T17:41:06.030Z,17.67
2018-03-31T17:43:32.086Z,17.83
2018-03-31T17:45:58.107Z,17.20
2018-03-31T17:48:24.136Z,16.87
2018-03-31T17:50:50.258Z,16.37
2018-03-31T17:53:16.299Z,16.90
2018-03-31T17:55:42.301Z,16.33
2018-03-31T17:58:08.420Z,17.23
2018-03-31T18:00:34.430Z,19.30
2018-03-31T18:03:00.446Z,17.00
2018-03-31T18:05:26.494Z,16.30
2018-03-31T18:07:52.491Z,16.40
2018-03-31T18:10:18.538Z,18.77
2018-03-31T18:12:44.532Z,16.07
2018-03-31T18:15:10.569Z,16.57
2018-03-31T18:17:36.582Z,16.30
2018-03-31T18:20:02.674Z,19.00
2018-03-31T18:22:28.661Z,16.80
2018-03-31T18:24:54.710Z,16.13
2018-03-31T18:27:20.752Z,16.47
2018-03-31T18:29:46.754Z,15.47
2018-03-31T18:32:12.788Z,16.83
2018-03-31T18:34:38.836Z,17.00
2018-03-31T18:37:05.141Z,15.67
2018-03-31T18:39:31.159Z,16.63
2018-03-31T18:41:57.262Z,16.53
2018-03-31T18:44:23.474Z,17.33
2018-03-31T18:46:49.545Z,15.93
2018-03-31T18:49:16.172Z,16.83
2018-03-31T18:51:42.534Z,15.97
2018-03-31T18:54:08.988Z,17.30
2018-03-31T18:56:35.630Z,16.47
2018-03-31T18:59:02.064Z,17.73
2018-03-31T19:01:29.003Z,17.37
2018-03-31T19:03:55.488Z,16.33
2018-03-31T19:06:22.260Z,17.87
2018-03-31T19:08:48.787Z,18.57
2018-03-31T19:11:15.211Z,20.30
2018-03-31T19:13:41.840Z,23.00
2018-03-31T19:16:08.315Z,25.27
2018-03-31T19:18:35.145Z,25.87
2018-03-31T19:21:01.585Z,27.73
2018-03-31T19:23:28.503Z,30.53
2018-03-31T19:25:55.265Z,30.17
2018-03-31T19:28:21.831Z,30.93
2018-03-31T19:30:50.190Z,34.37
2018-03-31T19:33:16.991Z,33.57
2018-03-31T19:35:49.504Z,30.17
2018-03-31T19:38:16.245Z,29.10
2018-03-31T19:40:42.863Z,22.37
2018-03-31T19:43:09.910Z,24.20
2018-03-31T19:45:36.151Z,19.73
2018-03-31T19:48:02.186Z,20.27
2018-03-31T19:50:28.248Z,20.43
2018-03-31T19:52:54.309Z,21.00
2018-03-31T19:55:20.356Z,19.77
2018-03-31T19:57:46.408Z,21.73
2018-03-31T20:00:12.474Z,20.37
2018-03-31T20:02:38.521Z,23.90
2018-03-31T20:05:04.566Z,21.90
2018-03-31T20:07:30.651Z,22.73
2018-03-31T20:09:56.760Z,23.37
2018-03-31T20:12:22.890Z,23.10
2018-03-31T20:14:48.968Z,23.67
2018-03-31T20:17:15.023Z,27.57
2018-03-31T20:19:41.247Z,26.10
2018-03-31T20:22:07.316Z,26.80
2018-03-31T20:24:33.339Z,25.20
2018-03-31T20:26:59.363Z,24.63
2018-03-31T20:29:25.450Z,26.77
2018-03-31T20:31:51.504Z,24.30
2018-03-31T20:34:17.581Z,23.87
2018-03-31T20:36:43.633Z,26.97
2018-03-31T20:39:09.712Z,22.67
2018-03-31T20:41:35.768Z,23.00
2018-03-31T20:44:01.793Z,22.07
2018-03-31T20:46:28.027Z,23.97
2018-03-31T20:48:54.070Z,21.97
2018-03-31T20:51:20.173Z,25.47
2018-03-31T20:53:46.465Z,23.03
2018-03-31T20:56:12.533Z,23.37
2018-03-31T20:58:38.552Z,26.97
2018-03-31T21:01:04.690Z,23.53
2018-03-31T21:03:30.741Z,22.87
2018-03-31T21:05:56.790Z,21.27
2018-03-31T21:08:22.993Z,20.43
2018-03-31T21:10:49.007Z,26.90
2018-03-31T21:13:15.032Z,24.97
2018-03-31T21:15:41.141Z,23.43
2018-03-31T21:18:07.202Z,24.90
2018-03-31T21:20:33.243Z,25.20
2018-03-31T21:22:59.340Z,24.60
2018-03-31T21:25:25.366Z,28.23
2018-03-31T21:27:51.405Z,25.30
2018-03-31T21:30:17.460Z,26.03
2018-03-31T21:32:43.481Z,24.57
2018-03-31T21:35:09.626Z,25.90
2018-03-31T21:37:35.645Z,26.07
2018-03-31T21:40:01.686Z,24.63
2018-03-31T21:42:27.713Z,27.20
2018-03-31T21:44:53.789Z,24.97
2018-03-31T21:47:19.832Z,24.87
2018-03-31T21:49:45.876Z,26.23
2018-03-31T21:52:11.893Z,27.20
2018-03-31T21:54:37.933Z,25.47
2018-03-31T21:57:04.020Z,26.83
2018-03-31T21:59:30.065Z,25.33
2018-03-31T22:01:56.137Z,26.97
2018-03-31T22:04:22.148Z,30.27
2018-03-31T22:06:48.177Z,24.70
2018-03-31T22:12:04.537Z,24.40
2018-03-31T22:14:36.889Z,25.63
2018-03-31T22:17:02.919Z,28.53
2018-03-31T22:19:29.098Z,27.73
2018-03-31T22:21:55.257Z,25.50
2018-03-31T22:24:21.310Z,29.87
2018-03-31T22:26:47.543Z,31.13
2018-03-31T22:29:13.577Z,39.33
2018-03-31T22:31:39.585Z,25.77
2018-03-31T22:34:06.018Z,26.53
2018-03-31T22:36:32.021Z,29.70
2018-03-31T22:38:58.034Z,23.27
2018-03-31T22:41:24.333Z,24.30
2018-03-31T22:43:50.357Z,25.70
2018-03-31T22:46:16.361Z,22.97
2018-03-31T22:48:42.630Z,23.23
2018-03-31T22:51:08.629Z,22.53
2018-03-31T22:53:34.681Z,22.10
2018-03-31T22:56:00.970Z,23.53
2018-03-31T22:58:26.977Z,20.47
2018-03-31T23:00:53.095Z,22.73
2018-03-31T23:03:19.231Z,18.93
2018-03-31T23:05:45.254Z,20.20
2018-03-31T23:08:11.484Z,22.37
2018-03-31T23:10:37.548Z,18.27
2018-03-31T23:13:03.555Z,18.77
2018-03-31T23:15:29.862Z,18.93
2018-03-31T23:17:55.924Z,18.50
2018-03-31T23:20:21.953Z,18.87
2018-03-31T23:22:48.268Z,21.37
2018-03-31T23:25:14.348Z,17.87
2018-03-31T23:27:40.360Z,18.07
2018-03-31T23:30:06.608Z,17.67
2018-03-31T23:32:32.661Z,16.73
2018-03-31T23:34:58.657Z,17.43
2018-03-31T23:37:24.804Z,16.87
2018-03-31T23:39:50.873Z,17.10
2018-03-31T23:42:16.944Z,16.77
2018-03-31T23:44:43.193Z,15.83
2018-03-31T23:47:09.227Z,17.10
2018-03-31T23:49:35.364Z,17.80
2018-03-31T23:52:01.509Z,17.43
2018-03-31T23:54:27.557Z,18.63
2018-03-31T23:56:53.800Z,18.63
2018-03-31T23:59:19.836Z,18.50
